Time;durP1;ratioP1;P1;durP2;ratioP2;P2;SDS_P1;SDS_P2;PMS_P1;PMS_P2;Temp;Humidity;BMP_temperature;BMP_pressure;BME280_temperature;BME280_humidity;BME280_pressure;Samples;Min_cycle;Max_cycle;Signal;HPM_P1;HPM_P2
2022/09/22 00:00:02;;;;;;;3.47;1.77;;;;;;;;;;2084078;28;20029;-79
2022/09/22 00:01:25;;;;;;;2.28;2.03;;;;;;;;;;2092215;28;20033;-79
2022/09/22 00:02:44;;;;;;;2.17;1.60;;;;;;;;;;2090223;28;20103;-79
2022/09/22 00:04:05;;;;;;;1.48;1.38;;;;;;;;;;2086834;28;20512;-79
2022/09/22 00:05:25;;;;;;;1.58;1.48;;;;;;;;;;2087125;28;20053;-78
2022/09/22 00:06:50;;;;;;;2.67;1.58;;;;;;;;;;2087562;28;20025;-79
2022/09/22 00:08:09;;;;;;;3.15;1.50;;;;;;;;;;2088171;28;20021;-79
2022/09/22 00:09:27;;;;;;;2.70;1.40;;;;;;;;;;2083978;28;20026;-79
2022/09/22 00:10:57;;;;;;;1.40;1.30;;;;;;;;;;2087778;28;20025;-79
2022/09/22 00:12:16;;;;;;;1.65;1.38;;;;;;;;;;2086814;28;20025;-79
2022/09/22 00:13:35;;;;;;;3.17;1.55;;;;;;;;;;2086730;28;20056;-79
2022/09/22 00:14:54;;;;;;;1.40;1.30;;;;;;;;;;2088726;28;20033;-79
2022/09/22 00:16:14;;;;;;;2.55;1.60;;;;;;;;;;2088330;28;20115;-79
2022/09/22 00:17:33;;;;;;;3.92;1.50;;;;;;;;;;2085839;28;20523;-79
2022/09/22 00:18:52;;;;;;;3.03;1.20;;;;;;;;;;2082681;28;20025;-79
2022/09/22 00:20:13;;;;;;;3.67;1.40;;;;;;;;;;2087360;28;20065;-79
2022/09/22 00:21:33;;;;;;;2.72;1.70;;;;;;;;;;2085884;28;20033;-79
2022/09/22 00:22:52;;;;;;;3.60;1.92;;;;;;;;;;2083224;28;20061;-80
2022/09/22 00:24:11;;;;;;;1.98;1.50;;;;;;;;;;2085698;28;20033;-79
2022/09/22 00:25:31;;;;;;;2.95;1.50;;;;;;;;;;2088465;28;20053;-80
2022/09/22 00:26:50;;;;;;;1.75;1.40;;;;;;;;;;2088094;28;20025;-80
2022/09/22 00:28:11;;;;;;;2.17;1.25;;;;;;;;;;2085882;28;20496;-79
2022/09/22 00:29:30;;;;;;;2.40;1.73;;;;;;;;;;2086007;28;21536;-79
2022/09/22 00:30:49;;;;;;;1.50;1.40;;;;;;;;;;2085044;28;20552;-79
2022/09/22 00:32:08;;;;;;;2.15;1.45;;;;;;;;;;2088644;28;20025;-79
2022/09/22 00:33:27;;;;;;;2.35;1.38;;;;;;;;;;2088232;28;20021;-79
2022/09/22 00:34:45;;;;;;;1.65;1.50;;;;;;;;;;2086941;28;20581;-79
2022/09/22 00:36:06;;;;;;;1.20;1.10;;;;;;;;;;2087992;28;20092;-79
2022/09/22 00:37:25;;;;;;;1.88;1.50;;;;;;;;;;2088635;28;20029;-79
2022/09/22 00:38:45;;;;;;;1.85;1.75;;;;;;;;;;2084338;28;20159;-80
2022/09/22 00:40:04;;;;;;;1.70;1.60;;;;;;;;;;2083980;28;20171;-79
2022/09/22 00:41:26;;;;;;;1.83;1.40;;;;;;;;;;2088335;28;20033;-79
2022/09/22 00:42:45;;;;;;;2.67;1.80;;;;;;;;;;2087827;28;20037;-79
2022/09/22 00:44:22;;;;;;;2.58;1.98;;;;;;;;;;2087714;28;20037;-79
2022/09/22 00:45:41;;;;;;;2.00;1.80;;;;;;;;;;2086075;28;20017;-79
2022/09/22 00:47:21;;;;;;;2.00;1.80;;;;;;;;;;2088439;28;20593;-79
2022/09/22 00:48:44;;;;;;;4.22;2.38;;;;;;;;;;2084491;28;20049;-79
2022/09/22 00:50:11;;;;;;;3.42;2.85;;;;;;;;;;2094784;28;20024;-79
2022/09/22 00:51:33;;;;;;;4.95;2.28;;;;;;;;;;2090601;28;20056;-79
2022/09/22 00:52:56;;;;;;;4.03;2.00;;;;;;;;;;2087695;28;20338;-79
2022/09/22 00:54:16;;;;;;;3.15;2.20;;;;;;;;;;2087872;28;20041;-79
2022/09/22 00:55:35;;;;;;;2.80;2.20;;;;;;;;;;2088551;28;20029;-79
2022/09/22 00:57:06;;;;;;;2.95;2.47;;;;;;;;;;2087601;28;20025;-79
2022/09/22 00:58:28;;;;;;;2.85;2.65;;;;;;;;;;2086954;28;20037;-80
2022/09/22 00:59:49;;;;;;;3.72;2.53;;;;;;;;;;2073840;28;20434;-79
2022/09/22 01:01:08;;;;;;;2.78;1.95;;;;;;;;;;2080587;28;20435;-79
2022/09/22 01:02:27;;;;;;;3.75;3.25;;;;;;;;;;2087450;28;20022;-79
2022/09/22 01:03:46;;;;;;;2.72;2.53;;;;;;;;;;2087271;28;20622;-79
2022/09/22 01:05:06;;;;;;;2.35;2.20;;;;;;;;;;2085726;28;20041;-79
2022/09/22 01:06:26;;;;;;;3.95;3.58;;;;;;;;;;2091718;28;20198;-79
2022/09/22 01:07:46;;;;;;;5.03;4.55;;;;;;;;;;2091459;28;20103;-79
2022/09/22 01:09:05;;;;;;;5.20;4.70;;;;;;;;;;2085961;28;20029;-79
2022/09/22 01:10:26;;;;;;;9.63;5.10;;;;;;;;;;2086203;28;20394;-79
2022/09/22 01:11:45;;;;;;;6.35;5.75;;;;;;;;;;2087853;28;20025;-79
2022/09/22 01:13:13;;;;;;;10.50;6.50;;;;;;;;;;2085349;28;20108;-79
2022/09/22 01:14:45;;;;;;;9.25;5.68;;;;;;;;;;2088197;28;20025;-79
2022/09/22 01:16:22;;;;;;;3.83;3.53;;;;;;;;;;2088025;28;20033;-79
2022/09/22 01:17:56;;;;;;;4.63;4.13;;;;;;;;;;2087430;28;20037;-79
2022/09/22 01:19:43;;;;;;;3.25;2.90;;;;;;;;;;2086174;28;20036;-79
2022/09/22 01:21:20;;;;;;;4.70;2.55;;;;;;;;;;2087409;28;20398;-79
2022/09/22 01:22:57;;;;;;;3.03;1.75;;;;;;;;;;2088218;28;20107;-79
2022/09/22 01:24:39;;;;;;;1.80;1.63;;;;;;;;;;2087072;28;20029;-79
2022/09/22 01:26:13;;;;;;;4.50;1.65;;;;;;;;;;2064007;28;20027;-79
2022/09/22 01:27:35;;;;;;;1.73;1.60;;;;;;;;;;2088848;28;20032;-79
2022/09/22 01:29:13;;;;;;;1.90;1.23;;;;;;;;;;2085513;28;20406;-79
2022/09/22 01:30:46;;;;;;;1.73;1.63;;;;;;;;;;2094374;28;20040;-79
2022/09/22 01:32:09;;;;;;;1.60;1.40;;;;;;;;;;2083593;28;20090;-79
2022/09/22 01:33:31;;;;;;;4.57;1.80;;;;;;;;;;2086003;28;20489;-79
2022/09/22 01:35:02;;;;;;;2.00;1.88;;;;;;;;;;2089829;28;20041;-79
2022/09/22 01:36:21;;;;;;;2.80;2.60;;;;;;;;;;2088565;28;20529;-80
2022/09/22 01:37:45;;;;;;;3.95;2.65;;;;;;;;;;2087841;28;20045;-79
2022/09/22 01:39:07;;;;;;;2.55;2.25;;;;;;;;;;2087456;28;20600;-79
2022/09/22 01:40:27;;;;;;;;;;;;;;;;;;2088257;28;20068;-79
2022/09/22 01:41:50;;;;;;;1.77;1.67;;;;;;;;;;2093128;28;19912;-79
2022/09/22 01:43:16;;;;;;;4.50;2.53;;;;;;;;;;2095954;28;20036;-79
2022/09/22 01:44:38;;;;;;;2.50;2.22;;;;;;;;;;2092256;28;20032;-80
2022/09/22 01:45:58;;;;;;;2.88;2.67;;;;;;;;;;2088124;28;20385;-79
2022/09/22 01:47:20;;;;;;;2.67;2.47;;;;;;;;;;2089234;28;20033;-80
2022/09/22 01:48:42;;;;;;;3.10;2.80;;;;;;;;;;2087310;28;20029;-80
2022/09/22 01:50:07;;;;;;;13.38;3.55;;;;;;;;;;2089117;28;20076;-79
2022/09/22 01:51:29;;;;;;;4.95;4.05;;;;;;;;;;2087301;28;20037;-80
2022/09/22 01:52:49;;;;;;;6.63;4.53;;;;;;;;;;2085374;28;20033;-80
2022/09/22 01:54:13;;;;;;;7.47;3.08;;;;;;;;;;2084063;28;20043;-80
2022/09/22 01:55:35;;;;;;;3.50;2.05;;;;;;;;;;2085792;28;20033;-80
2022/09/22 01:56:58;;;;;;;2.55;1.77;;;;;;;;;;2087933;28;20131;-80
2022/09/22 01:58:24;;;;;;;3.15;1.50;;;;;;;;;;2087297;28;20041;-80
2022/09/22 01:59:48;;;;;;;1.92;1.40;;;;;;;;;;2090291;28;20485;-80
2022/09/22 02:01:12;;;;;;;1.30;1.20;;;;;;;;;;2096693;28;20032;-79
2022/09/22 02:02:43;;;;;;;1.75;1.65;;;;;;;;;;2088274;28;20417;-79
2022/09/22 02:04:20;;;;;;;3.35;1.63;;;;;;;;;;2086458;28;20043;-79
2022/09/22 02:05:42;;;;;;;1.63;1.52;;;;;;;;;;2087408;28;20468;-80
2022/09/22 02:07:04;;;;;;;1.85;1.40;;;;;;;;;;2084555;28;20025;-80
2022/09/22 02:08:28;;;;;;;2.35;1.45;;;;;;;;;;2084289;28;20123;-80
2022/09/22 02:09:48;;;;;;;6.00;1.60;;;;;;;;;;2088637;28;20033;-79
2022/09/22 02:11:12;;;;;;;1.67;1.45;;;;;;;;;;2087690;28;20037;-80
2022/09/22 02:12:31;;;;;;;1.83;1.58;;;;;;;;;;2088651;28;20029;-80
2022/09/22 02:13:50;;;;;;;1.80;1.30;;;;;;;;;;2094852;28;20021;-79
2022/09/22 02:16:47;;;;;;;4.82;2.22;;;;;;;;;;2088779;28;20037;-79
2022/09/22 02:18:09;;;;;;;2.50;1.77;;;;;;;;;;2087730;28;20036;-79
2022/09/22 02:19:35;;;;;;;4.78;2.00;;;;;;;;;;2088660;28;20037;-79
2022/09/22 02:20:53;;;;;;;3.08;2.08;;;;;;;;;;2086424;28;20025;-79
2022/09/22 02:22:12;;;;;;;3.80;1.90;;;;;;;;;;2084984;28;20064;-79
2022/09/22 02:23:31;;;;;;;2.70;2.10;;;;;;;;;;2082372;28;20060;-80
2022/09/22 02:24:50;;;;;;;3.28;2.97;;;;;;;;;;2088928;28;20431;-78
2022/09/22 02:26:10;;;;;;;2.90;2.33;;;;;;;;;;2088029;28;20029;-79
2022/09/22 02:27:35;;;;;;;4.05;3.67;;;;;;;;;;2089588;28;20025;-79
2022/09/22 02:28:59;;;;;;;5.97;4.20;;;;;;;;;;2086748;28;20021;-79
2022/09/22 02:30:18;;;;;;;3.00;2.67;;;;;;;;;;2084880;28;20033;-78
2022/09/22 02:31:38;;;;;;;2.70;2.50;;;;;;;;;;2083889;28;20045;-78
2022/09/22 02:32:58;;;;;;;4.45;2.03;;;;;;;;;;2088802;28;20029;-78
2022/09/22 02:34:17;;;;;;;2.63;1.95;;;;;;;;;;2087784;28;20386;-78
2022/09/22 02:35:38;;;;;;;2.42;1.77;;;;;;;;;;2087508;28;20036;-78
2022/09/22 02:37:03;;;;;;;3.78;1.98;;;;;;;;;;2085571;28;20109;-78
2022/09/22 02:38:31;;;;;;;4.82;3.00;;;;;;;;;;2092466;28;20028;-79
2022/09/22 02:40:00;;;;;;;2.95;2.67;;;;;;;;;;2088642;28;20489;-78
2022/09/22 02:41:36;;;;;;;4.70;3.17;;;;;;;;;;2088230;28;20033;-79
2022/09/22 02:43:14;;;;;;;2.85;2.38;;;;;;;;;;2088785;28;20045;-78
2022/09/22 02:44:42;;;;;;;2.47;2.08;;;;;;;;;;2087901;28;20112;-78
2022/09/22 02:46:01;;;;;;;2.22;1.80;;;;;;;;;;2084504;28;20025;-78
2022/09/22 02:47:32;;;;;;;2.42;2.03;;;;;;;;;;2088266;28;20049;-78
2022/09/22 02:48:55;;;;;;;3.13;2.05;;;;;;;;;;2086766;28;20029;-78
2022/09/22 02:50:15;;;;;;;3.72;2.33;;;;;;;;;;2088164;28;20033;-78
2022/09/22 02:51:35;;;;;;;3.08;2.85;;;;;;;;;;2088219;28;20045;-79
2022/09/22 02:53:00;;;;;;;2.60;2.40;;;;;;;;;;2088398;28;20100;-78
2022/09/22 02:54:19;;;;;;;3.30;2.53;;;;;;;;;;2087157;28;20513;-78
2022/09/22 02:55:38;;;;;;;4.32;2.80;;;;;;;;;;2086418;28;20421;-78
2022/09/22 02:56:58;;;;;;;5.38;2.55;;;;;;;;;;2086931;28;20033;-78
2022/09/22 02:58:16;;;;;;;4.28;3.67;;;;;;;;;;2086930;28;20111;-77
2022/09/22 02:59:35;;;;;;;4.18;3.67;;;;;;;;;;2084165;28;20033;-78
2022/09/22 03:00:55;;;;;;;3.90;3.28;;;;;;;;;;2086253;28;20508;-78
2022/09/22 03:02:14;;;;;;;2.53;2.28;;;;;;;;;;2087320;28;20033;-77
2022/09/22 03:03:33;;;;;;;6.80;5.03;;;;;;;;;;2087476;28;20460;-79
2022/09/22 03:04:52;;;;;;;11.50;5.03;;;;;;;;;;2088863;28;20112;-78
2022/09/22 03:06:11;;;;;;;6.22;3.45;;;;;;;;;;2087278;28;20029;-78
2022/09/22 03:07:30;;;;;;;5.22;3.88;;;;;;;;;;2084444;28;20033;-78
2022/09/22 03:08:49;;;;;;;6.78;5.10;;;;;;;;;;2080451;28;20041;-78
2022/09/22 03:10:08;;;;;;;7.93;4.90;;;;;;;;;;2085601;28;20661;-78
2022/09/22 03:11:28;;;;;;;6.10;4.35;;;;;;;;;;2080040;28;20041;-78
2022/09/22 03:12:47;;;;;;;7.13;4.70;;;;;;;;;;2084615;28;20033;-79
2022/09/22 03:14:06;;;;;;;7.55;5.15;;;;;;;;;;2087687;28;20068;-79
2022/09/22 03:15:25;;;;;;;9.02;6.80;;;;;;;;;;2087309;28;20032;-79
2022/09/22 03:16:44;;;;;;;10.05;6.13;;;;;;;;;;2088714;28;20025;-79
2022/09/22 03:18:03;;;;;;;9.48;6.35;;;;;;;;;;2088116;28;20037;-79
2022/09/22 03:19:22;;;;;;;7.20;4.50;;;;;;;;;;2086938;28;20025;-79
2022/09/22 03:20:41;;;;;;;6.45;4.10;;;;;;;;;;2084138;28;20025;-79
2022/09/22 03:22:01;;;;;;;5.47;3.33;;;;;;;;;;2088265;28;20025;-79
2022/09/22 03:23:20;;;;;;;2.33;2.10;;;;;;;;;;2093585;28;20032;-79
2022/09/22 03:24:39;;;;;;;2.53;1.70;;;;;;;;;;2086234;28;20029;-78
2022/09/22 03:25:58;;;;;;;2.72;1.20;;;;;;;;;;2084025;28;20021;-78
2022/09/22 03:27:17;;;;;;;1.40;1.30;;;;;;;;;;2084010;28;20053;-79
2022/09/22 03:28:36;;;;;;;3.30;1.52;;;;;;;;;;2083244;28;20029;-79
2022/09/22 03:29:55;;;;;;;2.40;2.20;;;;;;;;;;2088299;28;20374;-78
2022/09/22 03:31:14;;;;;;;3.35;1.73;;;;;;;;;;2087710;28;20053;-79
2022/09/22 03:32:33;;;;;;;2.88;1.73;;;;;;;;;;2086513;28;20513;-79
2022/09/22 03:33:52;;;;;;;2.97;2.20;;;;;;;;;;2089838;28;20028;-80
2022/09/22 03:35:10;;;;;;;6.25;3.78;;;;;;;;;;2091108;28;20033;-79
2022/09/22 03:36:30;;;;;;;11.85;7.15;;;;;;;;;;2087610;28;20033;-79
2022/09/22 03:37:48;;;;;;;9.65;6.15;;;;;;;;;;2085941;28;20115;-79
2022/09/22 03:39:07;;;;;;;8.90;6.05;;;;;;;;;;2085724;28;20126;-79
2022/09/22 03:40:26;;;;;;;10.65;6.63;;;;;;;;;;2087866;28;20025;-79
2022/09/22 03:41:45;;;;;;;8.95;5.90;;;;;;;;;;2084933;28;20060;-79
2022/09/22 03:43:04;;;;;;;7.07;5.10;;;;;;;;;;2086150;28;20142;-79
2022/09/22 03:44:25;;;;;;;7.38;3.30;;;;;;;;;;2087557;28;20394;-79
2022/09/22 03:45:44;;;;;;;8.30;5.60;;;;;;;;;;2085856;28;20025;-79
2022/09/22 03:47:03;;;;;;;11.25;7.18;;;;;;;;;;2087113;28;20052;-80
2022/09/22 03:48:23;;;;;;;14.20;8.48;;;;;;;;;;2088295;28;20041;-79
2022/09/22 03:49:42;;;;;;;10.93;6.32;;;;;;;;;;2088039;28;20021;-79
2022/09/22 03:51:01;;;;;;;12.23;7.53;;;;;;;;;;2087105;28;20017;-79
2022/09/22 03:52:19;;;;;;;13.35;7.32;;;;;;;;;;2087407;28;20489;-80
2022/09/22 03:53:38;;;;;;;8.88;6.20;;;;;;;;;;2086037;28;20615;-79
2022/09/22 03:54:57;;;;;;;7.93;7.05;;;;;;;;;;2087407;28;20032;-79
2022/09/22 03:56:16;;;;;;;11.55;7.80;;;;;;;;;;2087257;28;20052;-78
2022/09/22 03:57:35;;;;;;;14.02;8.82;;;;;;;;;;2086935;28;20079;-79
2022/09/22 03:58:54;;;;;;;16.67;9.25;;;;;;;;;;2086586;28;20596;-78
2022/09/22 04:00:13;;;;;;;19.65;10.15;;;;;;;;;;2085637;28;20033;-78
2022/09/22 04:01:32;;;;;;;17.27;10.68;;;;;;;;;;2088112;28;20029;-78
2022/09/22 04:02:51;;;;;;;18.17;9.18;;;;;;;;;;2085791;28;20482;-78
2022/09/22 04:04:10;;;;;;;14.15;9.05;;;;;;;;;;2089326;28;20033;-78
2022/09/22 04:05:29;;;;;;;13.30;7.65;;;;;;;;;;2090827;28;20034;-79
2022/09/22 04:06:49;;;;;;;13.70;6.72;;;;;;;;;;2084920;28;20413;-78
2022/09/22 04:08:08;;;;;;;13.85;7.75;;;;;;;;;;2086193;28;20029;-79
2022/09/22 04:09:27;;;;;;;8.98;5.43;;;;;;;;;;2085340;28;20036;-78
2022/09/22 04:10:46;;;;;;;7.07;4.15;;;;;;;;;;2086009;28;20402;-79
2022/09/22 04:12:05;;;;;;;2.45;2.25;;;;;;;;;;2088563;28;20037;-79
2022/09/22 04:13:24;;;;;;;5.03;3.03;;;;;;;;;;2085772;28;20308;-79
2022/09/22 04:14:43;;;;;;;2.47;1.67;;;;;;;;;;2082904;28;20506;-79
2022/09/22 04:16:04;;;;;;;2.47;1.95;;;;;;;;;;2084545;28;20120;-79
2022/09/22 04:17:22;;;;;;;2.30;1.95;;;;;;;;;;2086204;28;20037;-79
2022/09/22 04:18:41;;;;;;;5.35;2.40;;;;;;;;;;2083050;28;20025;-79
2022/09/22 04:20:01;;;;;;;3.97;2.08;;;;;;;;;;2086525;28;20505;-79
2022/09/22 04:21:20;;;;;;;4.50;2.05;;;;;;;;;;2086515;28;20041;-79
2022/09/22 04:22:39;;;;;;;2.45;1.85;;;;;;;;;;2088379;28;20021;-79
2022/09/22 04:23:58;;;;;;;2.80;2.38;;;;;;;;;;2087673;28;20048;-79
2022/09/22 04:25:17;;;;;;;4.88;2.83;;;;;;;;;;2086622;28;20021;-79
2022/09/22 04:26:37;;;;;;;5.93;4.28;;;;;;;;;;2084198;28;20398;-78
2022/09/22 04:27:56;;;;;;;7.45;5.15;;;;;;;;;;2082571;28;20600;-79
2022/09/22 04:29:15;;;;;;;8.73;5.03;;;;;;;;;;2082665;28;20052;-79
2022/09/22 04:30:34;;;;;;;13.48;7.82;;;;;;;;;;2091474;28;20025;-80
2022/09/22 04:31:53;;;;;;;12.20;7.07;;;;;;;;;;2084766;28;20065;-80
2022/09/22 04:33:11;;;;;;;17.88;8.85;;;;;;;;;;2091727;28;20107;-79
2022/09/22 04:34:30;;;;;;;12.27;7.90;;;;;;;;;;2087451;28;20050;-79
2022/09/22 04:35:50;;;;;;;13.88;8.85;;;;;;;;;;2086253;28;20099;-78
2022/09/22 04:37:09;;;;;;;17.63;10.23;;;;;;;;;;2087080;28;20033;-79
2022/09/22 04:38:28;;;;;;;14.77;8.75;;;;;;;;;;2082176;28;20450;-79
2022/09/22 04:39:46;;;;;;;17.63;8.90;;;;;;;;;;2086947;28;20032;-80
2022/09/22 04:41:05;;;;;;;15.55;9.20;;;;;;;;;;2086766;28;20036;-80
2022/09/22 04:42:25;;;;;;;13.20;8.40;;;;;;;;;;2085345;28;20028;-79
2022/09/22 04:43:44;;;;;;;16.27;7.88;;;;;;;;;;2088104;28;20029;-80
2022/09/22 04:45:05;;;;;;;9.98;6.90;;;;;;;;;;2084128;28;20033;-80
2022/09/22 04:46:26;;;;;;;10.77;7.25;;;;;;;;;;2087943;28;20128;-79
2022/09/22 04:47:45;;;;;;;14.93;7.72;;;;;;;;;;2083377;28;20041;-79
2022/09/22 04:49:04;;;;;;;16.13;8.15;;;;;;;;;;2086278;28;20029;-78
2022/09/22 04:50:23;;;;;;;14.27;8.65;;;;;;;;;;2086642;28;20036;-78
2022/09/22 04:51:42;;;;;;;10.88;6.93;;;;;;;;;;2086330;28;20049;-78
2022/09/22 04:53:00;;;;;;;12.25;7.05;;;;;;;;;;2088035;28;20056;-77
2022/09/22 04:54:19;;;;;;;18.08;9.45;;;;;;;;;;2085888;28;20033;-78
2022/09/22 04:55:38;;;;;;;14.55;8.43;;;;;;;;;;2084062;28;20506;-78
2022/09/22 04:56:57;;;;;;;11.98;6.90;;;;;;;;;;2087169;28;20061;-80
2022/09/22 04:58:16;;;;;;;14.70;8.15;;;;;;;;;;2086671;28;20529;-79
2022/09/22 04:59:35;;;;;;;13.25;7.53;;;;;;;;;;2083249;28;20449;-80
2022/09/22 05:00:54;;;;;;;10.63;7.63;;;;;;;;;;2084644;28;20457;-80
2022/09/22 05:02:13;;;;;;;14.80;8.70;;;;;;;;;;2087494;28;20108;-82
2022/09/22 05:03:36;;;;;;;15.68;9.82;;;;;;;;;;2083414;28;20025;-77
2022/09/22 05:04:55;;;;;;;18.23;7.75;;;;;;;;;;2086824;28;20037;-78
2022/09/22 05:06:14;;;;;;;17.95;6.93;;;;;;;;;;2087362;28;20021;-79
2022/09/22 05:07:33;;;;;;;8.18;4.20;;;;;;;;;;2086380;28;20509;-80
2022/09/22 05:08:52;;;;;;;7.65;4.10;;;;;;;;;;2084065;28;20040;-78
2022/09/22 05:10:12;;;;;;;5.50;3.55;;;;;;;;;;2085062;28;20029;-79
2022/09/22 05:11:31;;;;;;;9.60;4.38;;;;;;;;;;2089584;28;20041;-79
2022/09/22 05:12:52;;;;;;;9.77;5.65;;;;;;;;;;2087881;28;20036;-79
2022/09/22 05:14:11;;;;;;;11.50;6.97;;;;;;;;;;2088100;28;20041;-81
2022/09/22 05:15:33;;;;;;;12.32;6.95;;;;;;;;;;2088106;28;20032;-81
2022/09/22 05:16:52;;;;;;;9.70;7.05;;;;;;;;;;2090144;28;20025;-78
2022/09/22 05:18:11;;;;;;;15.95;8.38;;;;;;;;;;2084909;28;20053;-78
2022/09/22 05:19:29;;;;;;;14.48;7.35;;;;;;;;;;2087510;28;20033;-78
2022/09/22 05:20:48;;;;;;;19.02;9.63;;;;;;;;;;2086186;28;20033;-80
2022/09/22 05:22:07;;;;;;;13.10;8.07;;;;;;;;;;2088020;28;20096;-79
2022/09/22 05:23:26;;;;;;;7.43;3.55;;;;;;;;;;2087914;28;20333;-78
2022/09/22 05:24:46;;;;;;;10.10;2.50;;;;;;;;;;2089064;28;20745;-78
2022/09/22 05:26:05;;;;;;;3.08;2.28;;;;;;;;;;2086343;28;20033;-78
2022/09/22 05:27:24;;;;;;;4.00;2.20;;;;;;;;;;2084999;28;20116;-79
2022/09/22 05:28:43;;;;;;;3.58;2.33;;;;;;;;;;2087032;28;20393;-78
2022/09/22 05:30:02;;;;;;;2.55;1.92;;;;;;;;;;2087499;28;20037;-78
2022/09/22 05:31:20;;;;;;;5.75;2.05;;;;;;;;;;2086210;28;20111;-79
2022/09/22 05:32:46;;;;;;;10.30;3.95;;;;;;;;;;2087116;28;20518;-79
2022/09/22 05:34:05;;;;;;;8.00;4.63;;;;;;;;;;2085842;28;20444;-78
2022/09/22 05:35:24;;;;;;;22.08;12.38;;;;;;;;;;2086979;28;20036;-80
2022/09/22 05:36:43;;;;;;;11.40;5.72;;;;;;;;;;2085645;28;20030;-79
2022/09/22 05:38:02;;;;;;;16.73;9.50;;;;;;;;;;2088248;28;20029;-80
2022/09/22 05:39:21;;;;;;;40.13;25.20;;;;;;;;;;2085667;28;20075;-79
2022/09/22 05:40:40;;;;;;;6.70;3.55;;;;;;;;;;2087457;28;20028;-80
2022/09/22 05:41:59;;;;;;;6.00;3.75;;;;;;;;;;2087429;28;20029;-80
2022/09/22 05:43:17;;;;;;;7.75;3.83;;;;;;;;;;2083462;28;20045;-80
2022/09/22 05:44:36;;;;;;;9.88;4.70;;;;;;;;;;2082702;28;20473;-81
2022/09/22 05:45:55;;;;;;;11.20;4.70;;;;;;;;;;2085869;28;20449;-80
2022/09/22 05:47:14;;;;;;;6.00;3.95;;;;;;;;;;2089217;28;20021;-80
2022/09/22 05:48:33;;;;;;;11.13;4.63;;;;;;;;;;2088479;28;20021;-80
2022/09/22 05:49:51;;;;;;;7.93;3.78;;;;;;;;;;2093203;28;20033;-80
2022/09/22 05:51:11;;;;;;;5.13;2.55;;;;;;;;;;2091155;28;20021;-80
2022/09/22 05:52:30;;;;;;;7.05;3.00;;;;;;;;;;2084754;28;20049;-81
2022/09/22 05:53:50;;;;;;;5.50;2.58;;;;;;;;;;2089422;28;20022;-80
2022/09/22 05:55:10;;;;;;;4.95;2.50;;;;;;;;;;2088704;28;20390;-80
2022/09/22 05:56:32;;;;;;;6.18;2.67;;;;;;;;;;2089335;28;20330;-81
2022/09/22 05:57:55;;;;;;;6.78;2.42;;;;;;;;;;2089056;28;20060;-80
2022/09/22 05:59:14;;;;;;;10.98;3.25;;;;;;;;;;2089629;28;20060;-79
2022/09/22 06:00:33;;;;;;;5.35;2.83;;;;;;;;;;2088079;28;20033;-79
2022/09/22 06:01:52;;;;;;;10.75;6.18;;;;;;;;;;2087485;28;20025;-80
2022/09/22 06:03:11;;;;;;;3.70;2.95;;;;;;;;;;2089344;28;20116;-80
2022/09/22 06:04:29;;;;;;;5.57;3.08;;;;;;;;;;2087704;28;20033;-79
2022/09/22 06:05:48;;;;;;;5.13;4.07;;;;;;;;;;2087260;28;20033;-79
2022/09/22 06:07:07;;;;;;;5.00;1.90;;;;;;;;;;2086902;28;20105;-80
2022/09/22 06:08:26;;;;;;;5.43;1.90;;;;;;;;;;2089191;28;20132;-79
2022/09/22 06:09:46;;;;;;;6.35;2.70;;;;;;;;;;2085956;28;20025;-79
2022/09/22 06:11:04;;;;;;;4.72;1.80;;;;;;;;;;2089032;28;20044;-79
2022/09/22 06:12:24;;;;;;;5.07;2.38;;;;;;;;;;2088121;28;20192;-79
2022/09/22 06:13:43;;;;;;;1.85;1.67;;;;;;;;;;2094028;28;20024;-79
2022/09/22 06:15:02;;;;;;;8.27;1.60;;;;;;;;;;2086466;28;20028;-80
2022/09/22 06:16:21;;;;;;;4.35;1.38;;;;;;;;;;2092870;28;20040;-80
2022/09/22 06:17:40;;;;;;;6.07;1.50;;;;;;;;;;2087228;28;20501;-80
2022/09/22 06:18:59;;;;;;;4.20;1.98;;;;;;;;;;2085395;28;20498;-80
2022/09/22 06:20:18;;;;;;;2.30;1.70;;;;;;;;;;2085417;28;20037;-80
2022/09/22 06:21:37;;;;;;;4.10;1.40;;;;;;;;;;2088551;28;20032;-80
2022/09/22 06:22:56;;;;;;;1.38;1.05;;;;;;;;;;2087499;28;20029;-79
2022/09/22 06:24:15;;;;;;;1.50;1.40;;;;;;;;;;2088044;28;20021;-80
2022/09/22 06:25:34;;;;;;;3.45;1.30;;;;;;;;;;2088082;28;20112;-79
2022/09/22 06:26:54;;;;;;;2.50;0.95;;;;;;;;;;2088937;28;20515;-79
2022/09/22 06:28:13;;;;;;;3.33;1.40;;;;;;;;;;2086860;28;20050;-80
2022/09/22 06:29:32;;;;;;;7.10;1.27;;;;;;;;;;2088181;28;20025;-79
2022/09/22 06:30:50;;;;;;;3.08;1.35;;;;;;;;;;2081202;28;20037;-80
2022/09/22 06:32:10;;;;;;;5.15;1.90;;;;;;;;;;2082601;28;20041;-79
2022/09/22 06:33:28;;;;;;;2.13;1.35;;;;;;;;;;2088915;28;20486;-79
2022/09/22 06:34:48;;;;;;;1.67;1.17;;;;;;;;;;2087485;28;20408;-80
2022/09/22 06:36:07;;;;;;;1.50;1.23;;;;;;;;;;2087853;28;20398;-80
2022/09/22 06:37:26;;;;;;;5.95;1.25;;;;;;;;;;2084227;28;20048;-80
2022/09/22 06:38:45;;;;;;;3.90;1.63;;;;;;;;;;2084699;28;20021;-80
2022/09/22 06:40:06;;;;;;;2.58;1.80;;;;;;;;;;2087993;28;20382;-79
2022/09/22 06:41:30;;;;;;;4.60;1.88;;;;;;;;;;2086955;28;20037;-80
2022/09/22 06:42:48;;;;;;;8.48;2.33;;;;;;;;;;2088405;28;20045;-81
2022/09/22 06:44:11;;;;;;;4.38;1.40;;;;;;;;;;2088499;28;20108;-80
2022/09/22 06:45:32;;;;;;;4.53;1.42;;;;;;;;;;2084767;28;20025;-80
2022/09/22 06:46:51;;;;;;;5.63;1.50;;;;;;;;;;2088223;28;20502;-80
2022/09/22 06:48:10;;;;;;;5.40;1.30;;;;;;;;;;2088176;28;20116;-79
2022/09/22 06:49:29;;;;;;;3.90;1.40;;;;;;;;;;2087194;28;21159;-80
2022/09/22 06:50:50;;;;;;;1.30;1.02;;;;;;;;;;2085882;28;20694;-80
2022/09/22 06:52:11;;;;;;;1.95;1.10;;;;;;;;;;2087551;28;20029;-80
2022/09/22 06:53:30;;;;;;;3.08;0.80;;;;;;;;;;2085275;28;20033;-81
2022/09/22 06:54:49;;;;;;;1.30;1.02;;;;;;;;;;2086539;28;20037;-80
2022/09/22 06:56:08;;;;;;;3.15;1.00;;;;;;;;;;2085662;28;20032;-81
2022/09/22 06:57:31;;;;;;;1.73;1.15;;;;;;;;;;2087517;28;20029;-81
2022/09/22 06:58:50;;;;;;;2.30;0.90;;;;;;;;;;2087382;28;20577;-81
2022/09/22 07:00:10;;;;;;;2.53;1.10;;;;;;;;;;2088279;28;20033;-81
2022/09/22 07:01:30;;;;;;;1.55;0.70;;;;;;;;;;2087843;28;20029;-80
2022/09/22 07:02:49;;;;;;;8.40;1.00;;;;;;;;;;2088635;28;20454;-81
2022/09/22 07:04:11;;;;;;;2.35;1.00;;;;;;;;;;2088410;28;20037;-81
2022/09/22 07:05:30;;;;;;;1.30;1.20;;;;;;;;;;2087958;28;20498;-80
2022/09/22 07:06:49;;;;;;;1.38;0.95;;;;;;;;;;2088550;28;20502;-81
2022/09/22 07:08:08;;;;;;;1.20;1.08;;;;;;;;;;2087491;28;20033;-81
2022/09/22 07:09:27;;;;;;;1.08;0.85;;;;;;;;;;2082025;28;20037;-81
2022/09/22 07:10:50;;;;;;;2.75;0.98;;;;;;;;;;2093156;28;20064;-81
2022/09/22 07:12:09;;;;;;;1.35;0.70;;;;;;;;;;2088719;28;20037;-81
2022/09/22 07:13:29;;;;;;;3.65;0.95;;;;;;;;;;2092854;28;20035;-81
2022/09/22 07:14:50;;;;;;;2.38;0.95;;;;;;;;;;2089994;28;20541;-79
2022/09/22 07:16:16;;;;;;;4.45;0.80;;;;;;;;;;2087701;28;20549;-80
2022/09/22 07:17:35;;;;;;;0.95;0.50;;;;;;;;;;2079974;28;20033;-79
2022/09/22 07:18:57;;;;;;;1.25;0.80;;;;;;;;;;2084658;28;20033;-79
2022/09/22 07:20:16;;;;;;;0.63;0.57;;;;;;;;;;2087325;28;20024;-80
2022/09/22 07:21:36;;;;;;;1.00;0.70;;;;;;;;;;2092652;28;20036;-80
2022/09/22 07:22:59;;;;;;;1.92;0.82;;;;;;;;;;2087688;28;20033;-79
2022/09/22 07:24:18;;;;;;;4.43;1.05;;;;;;;;;;2085366;28;20025;-80
2022/09/22 07:25:37;;;;;;;1.75;0.80;;;;;;;;;;2087610;28;20033;-80
2022/09/22 07:26:56;;;;;;;1.23;1.05;;;;;;;;;;2085104;28;20088;-79
2022/09/22 07:28:16;;;;;;;2.95;1.30;;;;;;;;;;2082673;28;20037;-80
2022/09/22 07:29:36;;;;;;;2.42;1.17;;;;;;;;;;2083269;28;20033;-80
2022/09/22 07:30:59;;;;;;;4.85;0.90;;;;;;;;;;2085071;28;20024;-80
2022/09/22 07:32:20;;;;;;;;;;;;;;;;;;2088203;28;20159;-80
2022/09/22 07:33:41;;;;;;;3.70;0.80;;;;;;;;;;2087806;28;19912;-80
2022/09/22 07:35:00;;;;;;;1.27;0.80;;;;;;;;;;2088624;28;20083;-80
2022/09/22 07:36:21;;;;;;;2.65;1.13;;;;;;;;;;2087859;28;20045;-80
2022/09/22 07:37:40;;;;;;;2.17;0.82;;;;;;;;;;2087120;28;20037;-80
2022/09/22 07:39:04;;;;;;;0.50;0.32;;;;;;;;;;2088455;28;20025;-80
2022/09/22 07:40:23;;;;;;;3.10;0.52;;;;;;;;;;2089021;28;20489;-79
2022/09/22 07:41:42;;;;;;;4.35;0.90;;;;;;;;;;2086707;28;20033;-80
2022/09/22 07:43:00;;;;;;;1.73;0.43;;;;;;;;;;2086581;28;20540;-80
2022/09/22 07:45:57;;;;;;;3.05;0.50;;;;;;;;;;2088503;28;20021;-80
2022/09/22 07:48:35;;;;;;;0.40;0.40;;;;;;;;;;2085757;28;20115;-80
2022/09/22 07:48:55;;;;;;;2.35;1.10;;;;;;;;;;2086829;28;20029;-80
2022/09/22 07:50:16;;;;;;;0.98;0.75;;;;;;;;;;2085760;28;20053;-80
2022/09/22 07:51:36;;;;;;;1.00;0.68;;;;;;;;;;2080805;28;20033;-79
2022/09/22 07:52:55;;;;;;;1.40;0.68;;;;;;;;;;2081403;28;20033;-80
2022/09/22 07:54:14;;;;;;;0.73;0.60;;;;;;;;;;2087714;28;20025;-80
2022/09/22 07:55:37;;;;;;;2.50;0.70;;;;;;;;;;2088223;28;20029;-80
2022/09/22 07:57:07;;;;;;;0.75;0.47;;;;;;;;;;2086768;28;20029;-80
2022/09/22 07:58:26;;;;;;;1.63;0.55;;;;;;;;;;2088697;28;20033;-80
2022/09/22 07:59:45;;;;;;;1.05;0.75;;;;;;;;;;2087630;28;20095;-79
2022/09/22 08:01:05;;;;;;;1.50;0.70;;;;;;;;;;2086994;28;20048;-80
2022/09/22 08:02:24;;;;;;;1.98;0.98;;;;;;;;;;2086703;28;20037;-79
2022/09/22 08:03:45;;;;;;;2.08;0.40;;;;;;;;;;2092256;28;20028;-80
2022/09/22 08:05:04;;;;;;;0.77;0.50;;;;;;;;;;2089474;28;20017;-80
2022/09/22 08:06:23;;;;;;;2.83;0.50;;;;;;;;;;2087267;28;20064;-79